sensor_id;sensor_type;location;lat;lon;timestamp;P1;P2;P0
77692;PMS5003;66984;47.404;18.836;2023-08-06T00:00:28;18.00;14.00;6.00
77692;PMS5003;66984;47.404;18.836;2023-08-06T00:01:31;15.00;14.00;5.00
77692;PMS5003;66984;47.404;18.836;2023-08-06T00:02:34;15.25;14.75;5.00
77692;PMS5003;66984;47.404;18.836;2023-08-06T00:03:43;12.00;10.50;3.00
77692;PMS5003;66984;47.404;18.836;2023-08-06T00:04:46;11.75;10.75;4.25
77692;PMS5003;66984;47.404;18.836;2023-08-06T00:05:49;13.25;12.00;5.75
77692;PMS5003;66984;47.404;18.836;2023-08-06T00:06:52;13.50;13.00;5.00
77692;PMS5003;66984;47.404;18.836;2023-08-06T00:07:55;14.00;12.00;5.75
77692;PMS5003;66984;47.404;18.836;2023-08-06T00:09:04;16.75;14.75;6.50
77692;PMS5003;66984;47.404;18.836;2023-08-06T00:10:07;17.00;15.00;6.00
77692;PMS5003;66984;47.404;18.836;2023-08-06T00:11:10;16.25;14.50;6.00
77692;PMS5003;66984;47.404;18.836;2023-08-06T00:12:13;18.00;17.25;6.00
77692;PMS5003;66984;47.404;18.836;2023-08-06T00:13:16;17.25;17.00;7.00
77692;PMS5003;66984;47.404;18.836;2023-08-06T00:14:25;17.50;15.00;7.00
77692;PMS5003;66984;47.404;18.836;2023-08-06T00:15:28;18.75;16.00;7.00
77692;PMS5003;66984;47.404;18.836;2023-08-06T00:16:31;16.75;14.75;5.75
77692;PMS5003;66984;47.404;18.836;2023-08-06T00:17:34;16.00;14.50;6.00
77692;PMS5003;66984;47.404;18.836;2023-08-06T00:18:38;18.00;18.00;7.25
77692;PMS5003;66984;47.404;18.836;2023-08-06T00:19:47;16.75;16.00;6.00
77692;PMS5003;66984;47.404;18.836;2023-08-06T00:20:52;18.00;15.00;6.75
77692;PMS5003;66984;47.404;18.836;2023-08-06T00:21:55;19.00;17.50;7.00
77692;PMS5003;66984;47.404;18.836;2023-08-06T00:22:58;19.75;18.75;8.00
77692;PMS5003;66984;47.404;18.836;2023-08-06T00:24:00;20.25;19.00;7.00
77692;PMS5003;66984;47.404;18.836;2023-08-06T00:25:09;19.00;18.50;8.00
77692;PMS5003;66984;47.404;18.836;2023-08-06T00:26:12;20.00;19.00;8.00
77692;PMS5003;66984;47.404;18.836;2023-08-06T00:27:15;18.50;18.00;7.00
77692;PMS5003;66984;47.404;18.836;2023-08-06T00:28:18;17.00;17.00;7.00
77692;PMS5003;66984;47.404;18.836;2023-08-06T00:29:21;16.00;15.00;6.25
77692;PMS5003;66984;47.404;18.836;2023-08-06T00:30:31;16.00;16.00;5.00
77692;PMS5003;66984;47.404;18.836;2023-08-06T00:31:34;16.00;15.00;6.00
77692;PMS5003;66984;47.404;18.836;2023-08-06T00:32:36;19.25;19.00;7.75
77692;PMS5003;66984;47.404;18.836;2023-08-06T00:33:39;20.75;19.00;6.00
77692;PMS5003;66984;47.404;18.836;2023-08-06T00:34:42;17.00;17.00;5.00
77692;PMS5003;66984;47.404;18.836;2023-08-06T00:35:51;16.75;16.75;5.50
77692;PMS5003;66984;47.404;18.836;2023-08-06T00:36:54;17.00;16.00;6.00
77692;PMS5003;66984;47.404;18.836;2023-08-06T00:37:57;15.00;15.00;5.00
77692;PMS5003;66984;47.404;18.836;2023-08-06T00:39:00;16.00;16.00;5.50
77692;PMS5003;66984;47.404;18.836;2023-08-06T00:40:03;16.00;15.00;5.00
77692;PMS5003;66984;47.404;18.836;2023-08-06T00:41:12;17.00;15.00;6.00
77692;PMS5003;66984;47.404;18.836;2023-08-06T00:42:23;17.00;16.00;6.00
77692;PMS5003;66984;47.404;18.836;2023-08-06T00:43:26;16.75;16.75;6.25
77692;PMS5003;66984;47.404;18.836;2023-08-06T00:44:28;19.00;19.00;8.00
77692;PMS5003;66984;47.404;18.836;2023-08-06T00:45:33;18.00;18.00;7.25
77692;PMS5003;66984;47.404;18.836;2023-08-06T00:46:44;19.00;18.00;6.50
77692;PMS5003;66984;47.404;18.836;2023-08-06T00:47:47;20.00;17.00;7.00
77692;PMS5003;66984;47.404;18.836;2023-08-06T00:48:50;19.00;16.00;7.00
77692;PMS5003;66984;47.404;18.836;2023-08-06T00:49:53;15.75;13.50;6.00
77692;PMS5003;66984;47.404;18.836;2023-08-06T00:50:56;15.75;13.75;5.00
77692;PMS5003;66984;47.404;18.836;2023-08-06T00:52:07;17.50;14.50;6.50
77692;PMS5003;66984;47.404;18.836;2023-08-06T00:53:11;16.00;14.00;6.00
77692;PMS5003;66984;47.404;18.836;2023-08-06T00:54:14;16.25;14.00;6.00
77692;PMS5003;66984;47.404;18.836;2023-08-06T00:55:17;17.75;15.00;6.00
77692;PMS5003;66984;47.404;18.836;2023-08-06T00:56:20;13.00;12.75;4.00
77692;PMS5003;66984;47.404;18.836;2023-08-06T00:57:29;15.00;15.00;6.75
77692;PMS5003;66984;47.404;18.836;2023-08-06T00:58:32;17.00;17.00;8.00
77692;PMS5003;66984;47.404;18.836;2023-08-06T00:59:36;16.75;16.00;6.00
77692;PMS5003;66984;47.404;18.836;2023-08-06T01:00:40;15.25;15.00;5.00
77692;PMS5003;66984;47.404;18.836;2023-08-06T01:01:43;18.00;15.00;5.00
77692;PMS5003;66984;47.404;18.836;2023-08-06T01:02:53;15.00;12.00;5.00
77692;PMS5003;66984;47.404;18.836;2023-08-06T01:03:56;14.75;13.00;6.75
77692;PMS5003;66984;47.404;18.836;2023-08-06T01:04:59;14.00;12.25;4.25
77692;PMS5003;66984;47.404;18.836;2023-08-06T01:06:02;15.25;12.25;6.00
77692;PMS5003;66984;47.404;18.836;2023-08-06T01:12:45;8.50;8.50;3.00
77692;PMS5003;66984;47.404;18.836;2023-08-06T01:15:32;14.00;12.00;4.00
77692;PMS5003;66984;47.404;18.836;2023-08-06T01:16:41;10.25;8.50;4.50
77692;PMS5003;66984;47.404;18.836;2023-08-06T01:17:45;10.00;10.00;4.75
77692;PMS5003;66984;47.404;18.836;2023-08-06T01:18:55;10.50;10.50;5.00
77692;PMS5003;66984;47.404;18.836;2023-08-06T01:19:58;11.00;11.00;4.00
77692;PMS5003;66984;47.404;18.836;2023-08-06T01:21:01;10.00;9.75;3.75
77692;PMS5003;66984;47.404;18.836;2023-08-06T01:22:04;8.00;7.00;3.00
77692;PMS5003;66984;47.404;18.836;2023-08-06T01:23:07;11.00;11.00;4.00
77692;PMS5003;66984;47.404;18.836;2023-08-06T01:24:16;10.00;10.00;4.00
77692;PMS5003;66984;47.404;18.836;2023-08-06T01:25:19;9.75;9.00;5.00
77692;PMS5003;66984;47.404;18.836;2023-08-06T01:26:33;14.00;12.75;5.00
77692;PMS5003;66984;47.404;18.836;2023-08-06T01:27:47;11.50;10.50;5.00
77692;PMS5003;66984;47.404;18.836;2023-08-06T01:30:14;10.00;9.00;5.00
77692;PMS5003;66984;47.404;18.836;2023-08-06T01:31:27;8.50;8.00;4.00
77692;PMS5003;66984;47.404;18.836;2023-08-06T01:32:38;7.75;7.75;3.00
77692;PMS5003;66984;47.404;18.836;2023-08-06T01:33:45;12.00;10.00;3.50
77692;PMS5003;66984;47.404;18.836;2023-08-06T01:34:57;8.25;8.00;2.00
77692;PMS5003;66984;47.404;18.836;2023-08-06T01:36:02;11.00;8.00;2.50
77692;PMS5003;66984;47.404;18.836;2023-08-06T01:37:07;11.00;10.00;3.75
77692;PMS5003;66984;47.404;18.836;2023-08-06T01:38:10;8.25;7.50;4.00
77692;PMS5003;66984;47.404;18.836;2023-08-06T01:39:13;9.75;9.00;4.00
77692;PMS5003;66984;47.404;18.836;2023-08-06T01:40:29;9.50;9.50;3.00
77692;PMS5003;66984;47.404;18.836;2023-08-06T01:41:46;12.00;12.00;5.00
77692;PMS5003;66984;47.404;18.836;2023-08-06T01:42:50;11.00;10.25;4.00
77692;PMS5003;66984;47.404;18.836;2023-08-06T01:43:53;9.00;9.00;3.00
77692;PMS5003;66984;47.404;18.836;2023-08-06T01:44:56;8.00;8.00;4.00
77692;PMS5003;66984;47.404;18.836;2023-08-06T01:46:06;12.25;11.25;3.00
77692;PMS5003;66984;47.404;18.836;2023-08-06T01:47:09;9.00;8.00;4.00
77692;PMS5003;66984;47.404;18.836;2023-08-06T01:48:12;7.25;7.00;3.00
77692;PMS5003;66984;47.404;18.836;2023-08-06T01:49:15;7.00;6.00;3.00
77692;PMS5003;66984;47.404;18.836;2023-08-06T01:50:17;7.00;7.00;2.00
77692;PMS5003;66984;47.404;18.836;2023-08-06T01:51:27;6.00;6.00;4.00
77692;PMS5003;66984;47.404;18.836;2023-08-06T01:52:30;6.50;6.50;3.25
77692;PMS5003;66984;47.404;18.836;2023-08-06T01:53:33;9.00;9.00;3.75
77692;PMS5003;66984;47.404;18.836;2023-08-06T01:54:36;8.25;8.25;4.00
77692;PMS5003;66984;47.404;18.836;2023-08-06T01:55:39;7.00;7.00;2.00
77692;PMS5003;66984;47.404;18.836;2023-08-06T01:56:48;6.00;6.00;2.00
77692;PMS5003;66984;47.404;18.836;2023-08-06T01:57:51;6.50;6.00;1.00
77692;PMS5003;66984;47.404;18.836;2023-08-06T01:58:54;8.00;8.00;1.75
77692;PMS5003;66984;47.404;18.836;2023-08-06T01:59:56;8.00;7.25;2.00
77692;PMS5003;66984;47.404;18.836;2023-08-06T02:01:00;7.00;7.00;1.00
77692;PMS5003;66984;47.404;18.836;2023-08-06T02:02:11;8.00;8.00;2.00
77692;PMS5003;66984;47.404;18.836;2023-08-06T02:03:14;7.00;7.00;2.00
77692;PMS5003;66984;47.404;18.836;2023-08-06T02:04:17;6.50;6.50;2.00
77692;PMS5003;66984;47.404;18.836;2023-08-06T02:05:20;6.00;5.00;3.00
77692;PMS5003;66984;47.404;18.836;2023-08-06T02:06:23;6.00;6.00;4.00
77692;PMS5003;66984;47.404;18.836;2023-08-06T02:07:33;4.75;4.50;2.00
77692;PMS5003;66984;47.404;18.836;2023-08-06T02:08:36;6.00;6.00;2.50
77692;PMS5003;66984;47.404;18.836;2023-08-06T02:09:38;5.00;5.00;3.00
77692;PMS5003;66984;47.404;18.836;2023-08-06T02:10:42;6.00;5.00;3.00
77692;PMS5003;66984;47.404;18.836;2023-08-06T02:11:45;5.00;5.00;1.25
77692;PMS5003;66984;47.404;18.836;2023-08-06T02:12:54;5.00;5.00;0.75
77692;PMS5003;66984;47.404;18.836;2023-08-06T02:13:57;4.00;4.00;1.00
77692;PMS5003;66984;47.404;18.836;2023-08-06T02:15:00;6.00;5.50;2.00
77692;PMS5003;66984;47.404;18.836;2023-08-06T02:16:03;7.00;6.00;1.00
77692;PMS5003;66984;47.404;18.836;2023-08-06T02:17:06;7.25;6.25;1.50
77692;PMS5003;66984;47.404;18.836;2023-08-06T02:18:15;6.00;6.00;1.00
77692;PMS5003;66984;47.404;18.836;2023-08-06T02:19:18;5.00;5.00;2.00
77692;PMS5003;66984;47.404;18.836;2023-08-06T02:20:21;5.00;5.00;1.25
77692;PMS5003;66984;47.404;18.836;2023-08-06T02:21:24;6.25;5.25;2.00
77692;PMS5003;66984;47.404;18.836;2023-08-06T02:22:27;5.00;4.00;2.50
77692;PMS5003;66984;47.404;18.836;2023-08-06T02:23:36;6.00;6.00;2.00
77692;PMS5003;66984;47.404;18.836;2023-08-06T02:24:39;6.50;6.50;2.50
77692;PMS5003;66984;47.404;18.836;2023-08-06T02:25:41;6.75;5.50;1.00
77692;PMS5003;66984;47.404;18.836;2023-08-06T02:26:44;5.00;4.50;1.00
77692;PMS5003;66984;47.404;18.836;2023-08-06T02:27:47;5.00;5.00;0.00
77692;PMS5003;66984;47.404;18.836;2023-08-06T02:28:57;3.75;3.75;1.00
77692;PMS5003;66984;47.404;18.836;2023-08-06T02:30:00;8.50;7.50;1.00
77692;PMS5003;66984;47.404;18.836;2023-08-06T02:31:03;8.00;7.25;2.00
77692;PMS5003;66984;47.404;18.836;2023-08-06T02:32:06;6.00;5.00;2.00
77692;PMS5003;66984;47.404;18.836;2023-08-06T02:33:09;5.00;5.00;2.00
77692;PMS5003;66984;47.404;18.836;2023-08-06T02:34:18;6.00;6.00;4.00
77692;PMS5003;66984;47.404;18.836;2023-08-06T02:35:21;6.00;5.00;2.00
77692;PMS5003;66984;47.404;18.836;2023-08-06T02:36:24;4.00;4.00;0.50
77692;PMS5003;66984;47.404;18.836;2023-08-06T02:37:29;5.00;5.00;1.00
77692;PMS5003;66984;47.404;18.836;2023-08-06T02:38:32;4.00;4.00;0.25
77692;PMS5003;66984;47.404;18.836;2023-08-06T02:39:42;4.50;4.50;1.00
77692;PMS5003;66984;47.404;18.836;2023-08-06T02:40:52;5.00;5.00;0.25
77692;PMS5003;66984;47.404;18.836;2023-08-06T02:41:54;4.00;4.00;0.00
77692;PMS5003;66984;47.404;18.836;2023-08-06T02:42:57;6.00;5.00;0.00
77692;PMS5003;66984;47.404;18.836;2023-08-06T02:44:00;6.00;6.00;0.00
77692;PMS5003;66984;47.404;18.836;2023-08-06T02:45:09;5.50;5.50;0.50
77692;PMS5003;66984;47.404;18.836;2023-08-06T02:46:12;5.75;5.75;1.00
77692;PMS5003;66984;47.404;18.836;2023-08-06T02:47:15;5.25;5.00;0.75
77692;PMS5003;66984;47.404;18.836;2023-08-06T02:48:17;5.00;3.00;1.00
77692;PMS5003;66984;47.404;18.836;2023-08-06T02:49:20;6.00;6.00;1.00
77692;PMS5003;66984;47.404;18.836;2023-08-06T02:50:30;5.00;4.00;1.00
77692;PMS5003;66984;47.404;18.836;2023-08-06T02:51:33;5.00;4.50;1.00
77692;PMS5003;66984;47.404;18.836;2023-08-06T02:52:36;4.00;4.00;1.00
77692;PMS5003;66984;47.404;18.836;2023-08-06T02:53:41;5.00;4.00;0.75
77692;PMS5003;66984;47.404;18.836;2023-08-06T02:54:44;5.25;5.00;0.00
77692;PMS5003;66984;47.404;18.836;2023-08-06T02:55:53;5.75;5.75;0.00
77692;PMS5003;66984;47.404;18.836;2023-08-06T02:56:57;4.00;3.75;0.00
77692;PMS5003;66984;47.404;18.836;2023-08-06T02:58:00;3.00;3.00;0.00
77692;PMS5003;66984;47.404;18.836;2023-08-06T02:59:03;3.50;3.00;0.00
77692;PMS5003;66984;47.404;18.836;2023-08-06T03:00:13;5.00;3.50;0.50
77692;PMS5003;66984;47.404;18.836;2023-08-06T03:01:16;4.75;2.00;0.00
77692;PMS5003;66984;47.404;18.836;2023-08-06T03:02:19;3.50;2.50;0.00
77692;PMS5003;66984;47.404;18.836;2023-08-06T03:03:22;4.50;4.50;0.00
77692;PMS5003;66984;47.404;18.836;2023-08-06T03:04:25;4.25;4.25;0.00
77692;PMS5003;66984;47.404;18.836;2023-08-06T03:05:34;4.00;3.00;0.00
77692;PMS5003;66984;47.404;18.836;2023-08-06T03:06:37;5.00;4.00;0.00
77692;PMS5003;66984;47.404;18.836;2023-08-06T03:07:40;5.00;5.00;0.00
77692;PMS5003;66984;47.404;18.836;2023-08-06T03:08:43;1.25;1.25;0.00
77692;PMS5003;66984;47.404;18.836;2023-08-06T03:09:46;2.50;2.25;0.00
77692;PMS5003;66984;47.404;18.836;2023-08-06T03:10:55;3.00;3.00;0.00
77692;PMS5003;66984;47.404;18.836;2023-08-06T03:11:58;3.00;3.00;0.00
77692;PMS5003;66984;47.404;18.836;2023-08-06T03:13:01;4.50;3.50;0.00
77692;PMS5003;66984;47.404;18.836;2023-08-06T03:14:04;3.25;3.25;0.00
77692;PMS5003;66984;47.404;18.836;2023-08-06T03:15:07;4.00;4.00;0.00
77692;PMS5003;66984;47.404;18.836;2023-08-06T03:16:16;4.00;3.00;0.00
77692;PMS5003;66984;47.404;18.836;2023-08-06T03:17:19;3.00;3.00;0.00
77692;PMS5003;66984;47.404;18.836;2023-08-06T03:18:22;3.00;3.00;0.00
77692;PMS5003;66984;47.404;18.836;2023-08-06T03:19:25;2.75;2.75;0.00
77692;PMS5003;66984;47.404;18.836;2023-08-06T03:20:28;5.00;5.00;1.00
77692;PMS5003;66984;47.404;18.836;2023-08-06T03:21:37;3.00;2.00;0.00
77692;PMS5003;66984;47.404;18.836;2023-08-06T03:22:40;4.75;4.75;0.00
77692;PMS5003;66984;47.404;18.836;2023-08-06T03:23:43;4.50;4.50;0.00
77692;PMS5003;66984;47.404;18.836;2023-08-06T03:24:51;5.00;5.00;1.00
77692;PMS5003;66984;47.404;18.836;2023-08-06T03:25:54;4.00;4.00;1.00
77692;PMS5003;66984;47.404;18.836;2023-08-06T03:27:03;5.00;5.00;1.50
77692;PMS5003;66984;47.404;18.836;2023-08-06T03:28:06;4.50;4.50;1.00
77692;PMS5003;66984;47.404;18.836;2023-08-06T03:29:09;5.50;5.00;1.00
77692;PMS5003;66984;47.404;18.836;2023-08-06T03:30:12;6.25;6.00;2.00
77692;PMS5003;66984;47.404;18.836;2023-08-06T03:31:15;7.50;7.50;2.50
77692;PMS5003;66984;47.404;18.836;2023-08-06T03:32:24;7.00;7.00;3.50
77692;PMS5003;66984;47.404;18.836;2023-08-06T03:33:27;4.00;4.00;2.00
77692;PMS5003;66984;47.404;18.836;2023-08-06T03:34:30;5.00;5.00;2.00
77692;PMS5003;66984;47.404;18.836;2023-08-06T03:35:33;5.50;5.00;1.75
77692;PMS5003;66984;47.404;18.836;2023-08-06T03:36:36;4.50;4.00;1.00
77692;PMS5003;66984;47.404;18.836;2023-08-06T03:37:45;3.00;3.00;1.00
77692;PMS5003;66984;47.404;18.836;2023-08-06T03:38:48;5.50;5.25;0.00
77692;PMS5003;66984;47.404;18.836;2023-08-06T03:39:51;4.00;4.00;0.00
77692;PMS5003;66984;47.404;18.836;2023-08-06T03:40:54;3.00;3.00;0.00
77692;PMS5003;66984;47.404;18.836;2023-08-06T03:42:10;4.00;4.00;0.00
77692;PMS5003;66984;47.404;18.836;2023-08-06T03:43:19;3.00;3.00;0.00
77692;PMS5003;66984;47.404;18.836;2023-08-06T03:44:22;4.50;4.50;0.00
77692;PMS5003;66984;47.404;18.836;2023-08-06T03:45:25;6.00;5.00;0.00
77692;PMS5003;66984;47.404;18.836;2023-08-06T03:46:28;5.25;4.00;0.00
77692;PMS5003;66984;47.404;18.836;2023-08-06T03:47:31;3.00;2.00;0.00
77692;PMS5003;66984;47.404;18.836;2023-08-06T03:48:40;2.00;1.00;0.00
77692;PMS5003;66984;47.404;18.836;2023-08-06T03:49:43;2.00;1.00;0.00
77692;PMS5003;66984;47.404;18.836;2023-08-06T03:50:46;3.00;3.00;0.00
77692;PMS5003;66984;47.404;18.836;2023-08-06T03:51:49;2.75;2.25;0.00
77692;PMS5003;66984;47.404;18.836;2023-08-06T03:52:52;3.00;2.25;0.00
77692;PMS5003;66984;47.404;18.836;2023-08-06T03:54:01;3.50;3.00;0.00
77692;PMS5003;66984;47.404;18.836;2023-08-06T03:55:04;3.50;3.50;0.25
77692;PMS5003;66984;47.404;18.836;2023-08-06T03:56:07;3.00;2.50;0.00
77692;PMS5003;66984;47.404;18.836;2023-08-06T03:57:10;3.50;3.25;0.50
77692;PMS5003;66984;47.404;18.836;2023-08-06T03:58:13;3.00;3.00;0.00
77692;PMS5003;66984;47.404;18.836;2023-08-06T03:59:22;3.75;3.75;0.00
77692;PMS5003;66984;47.404;18.836;2023-08-06T04:00:25;2.00;2.00;0.00
77692;PMS5003;66984;47.404;18.836;2023-08-06T04:01:28;2.00;2.00;0.00
77692;PMS5003;66984;47.404;18.836;2023-08-06T04:02:31;3.75;3.00;0.75
77692;PMS5003;66984;47.404;18.836;2023-08-06T04:03:34;1.00;1.00;0.00
77692;PMS5003;66984;47.404;18.836;2023-08-06T04:04:43;0.00;0.00;0.00
77692;PMS5003;66984;47.404;18.836;2023-08-06T04:05:46;0.00;0.00;0.00
77692;PMS5003;66984;47.404;18.836;2023-08-06T04:06:49;1.00;1.00;0.00
77692;PMS5003;66984;47.404;18.836;2023-08-06T04:07:52;0.00;0.00;0.00
77692;PMS5003;66984;47.404;18.836;2023-08-06T04:08:55;0.00;0.00;0.00
77692;PMS5003;66984;47.404;18.836;2023-08-06T04:10:04;0.75;0.75;0.00
77692;PMS5003;66984;47.404;18.836;2023-08-06T04:11:07;0.00;0.00;0.00
77692;PMS5003;66984;47.404;18.836;2023-08-06T04:12:10;0.00;0.00;0.00
77692;PMS5003;66984;47.404;18.836;2023-08-06T04:13:13;0.25;0.25;0.00
77692;PMS5003;66984;47.404;18.836;2023-08-06T04:14:16;0.00;0.00;0.00
77692;PMS5003;66984;47.404;18.836;2023-08-06T04:15:25;0.00;0.00;0.00
77692;PMS5003;66984;47.404;18.836;2023-08-06T04:16:28;0.00;0.00;0.00
77692;PMS5003;66984;47.404;18.836;2023-08-06T04:17:31;0.00;0.00;0.00
77692;PMS5003;66984;47.404;18.836;2023-08-06T04:18:34;0.00;0.00;0.00
77692;PMS5003;66984;47.404;18.836;2023-08-06T04:19:37;0.00;0.00;0.00
77692;PMS5003;66984;47.404;18.836;2023-08-06T04:20:46;1.00;1.00;0.00
77692;PMS5003;66984;47.404;18.836;2023-08-06T04:21:51;1.75;1.75;0.00
77692;PMS5003;66984;47.404;18.836;2023-08-06T04:22:55;1.00;1.00;0.00
77692;PMS5003;66984;47.404;18.836;2023-08-06T04:23:58;1.75;1.75;0.00
77692;PMS5003;66984;47.404;18.836;2023-08-06T04:25:02;0.00;0.00;0.00
77692;PMS5003;66984;47.404;18.836;2023-08-06T04:26:11;0.00;0.00;0.00
77692;PMS5003;66984;47.404;18.836;2023-08-06T04:27:14;0.00;0.00;0.00
77692;PMS5003;66984;47.404;18.836;2023-08-06T04:28:19;0.00;0.00;0.00
77692;PMS5003;66984;47.404;18.836;2023-08-06T04:29:21;0.00;0.00;0.00
77692;PMS5003;66984;47.404;18.836;2023-08-06T04:30:24;0.00;0.00;0.00
77692;PMS5003;66984;47.404;18.836;2023-08-06T04:31:33;0.00;0.00;0.00
77692;PMS5003;66984;47.404;18.836;2023-08-06T04:32:36;0.00;0.00;0.00
77692;PMS5003;66984;47.404;18.836;2023-08-06T04:33:39;0.00;0.00;0.00
77692;PMS5003;66984;47.404;18.836;2023-08-06T04:34:42;0.00;0.00;0.00
77692;PMS5003;66984;47.404;18.836;2023-08-06T04:35:45;0.00;0.00;0.00
77692;PMS5003;66984;47.404;18.836;2023-08-06T04:36:55;0.00;0.00;0.00
77692;PMS5003;66984;47.404;18.836;2023-08-06T04:37:58;0.00;0.00;0.00
77692;PMS5003;66984;47.404;18.836;2023-08-06T04:39:01;0.00;0.00;0.00
77692;PMS5003;66984;47.404;18.836;2023-08-06T04:40:04;0.00;0.00;0.00
77692;PMS5003;66984;47.404;18.836;2023-08-06T04:41:07;0.00;0.00;0.00
77692;PMS5003;66984;47.404;18.836;2023-08-06T04:42:16;0.00;0.00;0.00
77692;PMS5003;66984;47.404;18.836;2023-08-06T04:43:25;0.00;0.00;0.00
77692;PMS5003;66984;47.404;18.836;2023-08-06T04:44:28;0.00;0.00;0.00
77692;PMS5003;66984;47.404;18.836;2023-08-06T04:45:31;0.00;0.00;0.00
77692;PMS5003;66984;47.404;18.836;2023-08-06T04:46:34;0.00;0.00;0.00
77692;PMS5003;66984;47.404;18.836;2023-08-06T04:47:43;0.00;0.00;0.00
77692;PMS5003;66984;47.404;18.836;2023-08-06T04:48:46;0.00;0.00;0.00
77692;PMS5003;66984;47.404;18.836;2023-08-06T04:49:49;0.00;0.00;0.00
77692;PMS5003;66984;47.404;18.836;2023-08-06T04:50:52;0.00;0.00;0.00
77692;PMS5003;66984;47.404;18.836;2023-08-06T04:51:55;0.00;0.00;0.00
77692;PMS5003;66984;47.404;18.836;2023-08-06T04:53:04;0.00;0.00;0.00
77692;PMS5003;66984;47.404;18.836;2023-08-06T04:54:07;0.00;0.00;0.00
77692;PMS5003;66984;47.404;18.836;2023-08-06T04:55:10;0.00;0.00;0.00
77692;PMS5003;66984;47.404;18.836;2023-08-06T04:56:13;0.00;0.00;0.00
77692;PMS5003;66984;47.404;18.836;2023-08-06T04:57:16;0.00;0.00;0.00
77692;PMS5003;66984;47.404;18.836;2023-08-06T04:58:25;0.00;0.00;0.00
77692;PMS5003;66984;47.404;18.836;2023-08-06T04:59:28;0.00;0.00;0.00
77692;PMS5003;66984;47.404;18.836;2023-08-06T05:00:31;0.00;0.00;0.00
77692;PMS5003;66984;47.404;18.836;2023-08-06T05:01:34;0.00;0.00;0.00
77692;PMS5003;66984;47.404;18.836;2023-08-06T05:02:43;0.00;0.00;0.00
77692;PMS5003;66984;47.404;18.836;2023-08-06T05:03:47;0.00;0.00;0.00
77692;PMS5003;66984;47.404;18.836;2023-08-06T05:04:50;0.00;0.00;0.00
77692;PMS5003;66984;47.404;18.836;2023-08-06T05:05:53;0.00;0.00;0.00
77692;PMS5003;66984;47.404;18.836;2023-08-06T05:06:56;0.00;0.00;0.00
77692;PMS5003;66984;47.404;18.836;2023-08-06T05:08:05;0.00;0.00;0.00
77692;PMS5003;66984;47.404;18.836;2023-08-06T05:09:08;0.00;0.00;0.00
77692;PMS5003;66984;47.404;18.836;2023-08-06T05:10:11;0.00;0.00;0.00
77692;PMS5003;66984;47.404;18.836;2023-08-06T05:11:14;0.00;0.00;0.00
77692;PMS5003;66984;47.404;18.836;2023-08-06T05:12:17;0.00;0.00;0.00
77692;PMS5003;66984;47.404;18.836;2023-08-06T05:13:26;0.00;0.00;0.00
77692;PMS5003;66984;47.404;18.836;2023-08-06T05:14:29;0.00;0.00;0.00
77692;PMS5003;66984;47.404;18.836;2023-08-06T05:15:32;0.00;0.00;0.00
77692;PMS5003;66984;47.404;18.836;2023-08-06T05:16:35;0.00;0.00;0.00
77692;PMS5003;66984;47.404;18.836;2023-08-06T05:17:38;0.00;0.00;0.00
77692;PMS5003;66984;47.404;18.836;2023-08-06T05:18:48;0.00;0.00;0.00
77692;PMS5003;66984;47.404;18.836;2023-08-06T05:19:50;0.00;0.00;0.00
77692;PMS5003;66984;47.404;18.836;2023-08-06T05:20:53;0.00;0.00;0.00
77692;PMS5003;66984;47.404;18.836;2023-08-06T05:21:56;0.00;0.00;0.00
77692;PMS5003;66984;47.404;18.836;2023-08-06T05:22:59;0.00;0.00;0.00
77692;PMS5003;66984;47.404;18.836;2023-08-06T05:24:08;0.00;0.00;0.00
77692;PMS5003;66984;47.404;18.836;2023-08-06T05:25:12;0.00;0.00;0.00
77692;PMS5003;66984;47.404;18.836;2023-08-06T05:26:17;0.00;0.00;0.00
77692;PMS5003;66984;47.404;18.836;2023-08-06T05:27:21;0.00;0.00;0.00
77692;PMS5003;66984;47.404;18.836;2023-08-06T05:28:24;0.00;0.00;0.00
77692;PMS5003;66984;47.404;18.836;2023-08-06T05:29:34;0.00;0.00;0.00
77692;PMS5003;66984;47.404;18.836;2023-08-06T05:30:40;0.00;0.00;0.00
77692;PMS5003;66984;47.404;18.836;2023-08-06T05:31:43;0.00;0.00;0.00
77692;PMS5003;66984;47.404;18.836;2023-08-06T05:32:46;0.00;0.00;0.00
77692;PMS5003;66984;47.404;18.836;2023-08-06T05:33:49;0.00;0.00;0.00
77692;PMS5003;66984;47.404;18.836;2023-08-06T05:34:58;0.00;0.00;0.00
77692;PMS5003;66984;47.404;18.836;2023-08-06T05:36:01;0.00;0.00;0.00
77692;PMS5003;66984;47.404;18.836;2023-08-06T05:37:04;0.00;0.00;0.00
77692;PMS5003;66984;47.404;18.836;2023-08-06T05:38:07;0.00;0.00;0.00
77692;PMS5003;66984;47.404;18.836;2023-08-06T05:39:10;0.00;0.00;0.00
77692;PMS5003;66984;47.404;18.836;2023-08-06T05:40:19;0.00;0.00;0.00
77692;PMS5003;66984;47.404;18.836;2023-08-06T05:41:29;0.00;0.00;0.00
77692;PMS5003;66984;47.404;18.836;2023-08-06T05:42:45;0.00;0.00;0.00
77692;PMS5003;66984;47.404;18.836;2023-08-06T05:43:48;0.00;0.00;0.00
77692;PMS5003;66984;47.404;18.836;2023-08-06T05:44:51;0.00;0.00;0.00
77692;PMS5003;66984;47.404;18.836;2023-08-06T05:46:00;0.00;0.00;0.00
77692;PMS5003;66984;47.404;18.836;2023-08-06T05:47:04;0.00;0.00;0.00
77692;PMS5003;66984;47.404;18.836;2023-08-06T05:48:06;0.00;0.00;0.00
77692;PMS5003;66984;47.404;18.836;2023-08-06T05:49:09;0.00;0.00;0.00
77692;PMS5003;66984;47.404;18.836;2023-08-06T05:50:12;0.00;0.00;0.00
77692;PMS5003;66984;47.404;18.836;2023-08-06T05:51:22;0.00;0.00;0.00
77692;PMS5003;66984;47.404;18.836;2023-08-06T05:52:25;0.00;0.00;0.00
77692;PMS5003;66984;47.404;18.836;2023-08-06T05:53:28;0.00;0.00;0.00
77692;PMS5003;66984;47.404;18.836;2023-08-06T05:54:31;0.00;0.00;0.00
77692;PMS5003;66984;47.404;18.836;2023-08-06T05:55:34;0.00;0.00;0.00
77692;PMS5003;66984;47.404;18.836;2023-08-06T05:56:45;0.00;0.00;0.00
77692;PMS5003;66984;47.404;18.836;2023-08-06T05:57:47;0.00;0.00;0.00
77692;PMS5003;66984;47.404;18.836;2023-08-06T05:58:50;0.00;0.00;0.00
77692;PMS5003;66984;47.404;18.836;2023-08-06T05:59:55;0.00;0.00;0.00
77692;PMS5003;66984;47.404;18.836;2023-08-06T06:00:58;0.00;0.00;0.00
77692;PMS5003;66984;47.404;18.836;2023-08-06T06:02:08;0.00;0.00;0.00
77692;PMS5003;66984;47.404;18.836;2023-08-06T06:03:11;0.00;0.00;0.00
77692;PMS5003;66984;47.404;18.836;2023-08-06T06:04:14;0.00;0.00;0.00
77692;PMS5003;66984;47.404;18.836;2023-08-06T06:05:16;0.00;0.00;0.00
77692;PMS5003;66984;47.404;18.836;2023-08-06T06:06:19;0.00;0.00;0.00
77692;PMS5003;66984;47.404;18.836;2023-08-06T06:07:29;0.00;0.00;0.00
77692;PMS5003;66984;47.404;18.836;2023-08-06T06:08:31;0.00;0.00;0.00
77692;PMS5003;66984;47.404;18.836;2023-08-06T06:09:34;0.00;0.00;0.00
77692;PMS5003;66984;47.404;18.836;2023-08-06T06:10:37;0.00;0.00;0.00
77692;PMS5003;66984;47.404;18.836;2023-08-06T06:11:40;0.00;0.00;0.00
77692;PMS5003;66984;47.404;18.836;2023-08-06T06:12:50;0.00;0.00;0.00
77692;PMS5003;66984;47.404;18.836;2023-08-06T06:13:53;0.00;0.00;0.00
77692;PMS5003;66984;47.404;18.836;2023-08-06T06:14:55;0.00;0.00;0.00
77692;PMS5003;66984;47.404;18.836;2023-08-06T06:15:58;0.00;0.00;0.00
77692;PMS5003;66984;47.404;18.836;2023-08-06T06:17:01;0.00;0.00;0.00
77692;PMS5003;66984;47.404;18.836;2023-08-06T06:18:11;0.00;0.00;0.00
77692;PMS5003;66984;47.404;18.836;2023-08-06T06:19:13;0.00;0.00;0.00